createdAt,value
2022-10-31T00:01:36.618Z,19.10
2022-10-31T00:04:05.814Z,20.50
2022-10-31T00:09:03.715Z,16.20
2022-10-31T00:11:32.257Z,18.60
2022-10-31T00:14:00.870Z,19.40
2022-10-31T00:16:29.842Z,18.50
2022-10-31T00:19:00.842Z,18.30
2022-10-31T00:21:30.617Z,17.90
2022-10-31T00:24:00.307Z,17.60
2022-10-31T00:26:29.636Z,19.40
2022-10-31T00:31:26.194Z,18.10
2022-10-31T00:33:54.259Z,18.20
2022-10-31T00:36:22.426Z,18.20
2022-10-31T00:38:50.502Z,19.60
2022-10-31T00:41:19.332Z,19.70
2022-10-31T00:43:47.482Z,18.40
2022-10-31T00:46:15.853Z,19.00
2022-10-31T00:48:44.138Z,17.90
2022-10-31T00:51:12.298Z,19.00
2022-10-31T00:53:41.398Z,17.30
2022-10-31T00:56:10.222Z,19.20
2022-10-31T00:58:38.458Z,21.00
2022-10-31T01:01:06.545Z,17.90
2022-10-31T01:03:36.653Z,18.30
2022-10-31T01:06:10.975Z,16.70
2022-10-31T01:08:40.179Z,17.00
2022-10-31T01:11:20.277Z,16.20
2022-10-31T01:13:50.608Z,18.90
2022-10-31T01:16:20.975Z,18.70
2022-10-31T01:18:49.348Z,17.80
2022-10-31T01:21:20.703Z,17.50
2022-10-31T01:23:51.438Z,17.70
2022-10-31T01:26:22.811Z,16.30
2022-10-31T01:28:53.907Z,16.60
2022-10-31T01:31:24.354Z,17.20
2022-10-31T01:33:52.419Z,18.80
2022-10-31T01:36:25.059Z,17.20
2022-10-31T01:38:55.115Z,15.40
2022-10-31T01:41:27.346Z,16.30
2022-10-31T01:44:04.582Z,14.70
2022-10-31T01:46:47.389Z,15.10
2022-10-31T01:49:54.583Z,13.90
2022-10-31T01:52:34.090Z,9.70
2022-10-31T01:55:05.271Z,15.30
2022-10-31T01:57:36.116Z,10.70
2022-10-31T02:00:10.387Z,11.10
2022-10-31T02:02:42.608Z,12.20
2022-10-31T02:05:15.721Z,10.70
2022-10-31T02:07:53.178Z,11.70
2022-10-31T02:10:24.353Z,10.20
2022-10-31T02:12:56.337Z,12.30
2022-10-31T02:15:24.571Z,14.90
2022-10-31T02:17:52.932Z,13.80
2022-10-31T02:20:26.778Z,14.80
2022-10-31T02:23:20.009Z,15.90
2022-10-31T02:26:15.005Z,14.80
2022-10-31T02:29:24.530Z,13.00
2022-10-31T02:32:00.925Z,16.70
2022-10-31T02:35:01.961Z,14.80
2022-10-31T02:37:51.767Z,16.00
2022-10-31T02:40:28.622Z,14.20
2022-10-31T02:43:37.763Z,13.80
2022-10-31T02:48:48.983Z,13.60
2022-10-31T02:51:18.665Z,12.60
2022-10-31T02:53:46.846Z,13.10
2022-10-31T02:56:20.541Z,12.50
2022-10-31T02:58:54.969Z,15.00
2022-10-31T03:01:58.629Z,14.60
2022-10-31T03:04:53.574Z,13.20
2022-10-31T03:07:47.653Z,13.40
2022-10-31T03:10:37.024Z,13.50
2022-10-31T03:13:19.002Z,14.20
2022-10-31T03:15:52.738Z,14.00
2022-10-31T03:18:34.626Z,14.90
2022-10-31T03:21:08.341Z,12.90
2022-10-31T03:23:38.760Z,14.80
2022-10-31T03:26:09.331Z,14.10
2022-10-31T03:28:46.469Z,10.30
2022-10-31T03:31:20.589Z,10.40
2022-10-31T03:33:52.198Z,12.70
2022-10-31T03:36:21.666Z,12.10
2022-10-31T03:38:51.258Z,10.30
2022-10-31T03:41:25.014Z,14.00
2022-10-31T03:43:59.157Z,13.70
2022-10-31T03:46:28.409Z,12.40
2022-10-31T03:48:59.790Z,13.20
2022-10-31T03:51:39.668Z,14.10
2022-10-31T03:54:33.040Z,14.00
2022-10-31T03:57:11.972Z,12.50
2022-10-31T03:59:48.420Z,13.40
2022-10-31T04:02:19.876Z,15.10
2022-10-31T04:04:50.373Z,14.80
2022-10-31T04:07:19.476Z,14.70
2022-10-31T04:09:53.483Z,15.00
2022-10-31T04:12:25.181Z,14.30
2022-10-31T04:15:21.507Z,13.80
2022-10-31T04:17:54.271Z,14.80
2022-10-31T04:20:32.542Z,15.20
2022-10-31T04:23:02.012Z,14.70
2022-10-31T04:25:30.703Z,16.60
2022-10-31T04:27:59.927Z,15.00
2022-10-31T04:30:28.172Z,14.10
2022-10-31T04:32:56.459Z,15.70
2022-10-31T04:35:24.830Z,15.60
2022-10-31T04:37:53.376Z,14.50
2022-10-31T04:40:22.454Z,15.10
2022-10-31T04:42:56.306Z,16.50
2022-10-31T04:45:24.291Z,15.80
2022-10-31T04:47:53.477Z,14.40
2022-10-31T04:50:21.506Z,14.40
2022-10-31T04:52:49.599Z,15.60
2022-10-31T04:55:19.650Z,14.40
2022-10-31T04:57:50.994Z,14.40
2022-10-31T05:00:21.990Z,15.10
2022-10-31T05:02:56.370Z,14.70
2022-10-31T05:05:27.545Z,13.10
2022-10-31T05:07:55.972Z,16.90
2022-10-31T05:10:28.345Z,12.90
2022-10-31T05:13:00.211Z,15.10
2022-10-31T05:15:47.130Z,12.80
2022-10-31T05:18:30.019Z,11.20
2022-10-31T05:21:00.891Z,11.50
2022-10-31T05:26:16.018Z,12.70
2022-10-31T05:28:44.002Z,14.70
2022-10-31T05:31:12.810Z,15.30
2022-10-31T05:33:40.898Z,16.00
2022-10-31T05:36:27.504Z,16.20
2022-10-31T05:39:05.619Z,13.30
2022-10-31T05:41:40.141Z,12.70
2022-10-31T05:44:14.998Z,14.70
2022-10-31T05:46:53.694Z,14.60
2022-10-31T05:49:44.162Z,13.50
2022-10-31T05:52:30.798Z,12.40
2022-10-31T05:55:05.324Z,12.40
2022-10-31T05:57:34.929Z,11.30
2022-10-31T06:00:04.327Z,12.80
2022-10-31T06:02:35.733Z,13.20
2022-10-31T06:05:26.907Z,12.40
2022-10-31T06:07:55.381Z,12.00
2022-10-31T06:10:24.899Z,10.40
2022-10-31T06:12:55.157Z,11.90
2022-10-31T06:15:43.985Z,13.30
2022-10-31T06:18:13.406Z,13.20
2022-10-31T06:20:48.623Z,13.90
2022-10-31T06:23:17.190Z,16.20
2022-10-31T06:25:50.797Z,14.20
2022-10-31T06:28:18.975Z,15.70
2022-10-31T06:30:53.589Z,14.00
2022-10-31T06:33:22.008Z,15.90
2022-10-31T06:36:02.842Z,14.60
2022-10-31T06:38:30.794Z,15.00
2022-10-31T06:41:04.572Z,14.50
2022-10-31T06:43:41.094Z,15.50
2022-10-31T06:46:27.698Z,14.70
2022-10-31T06:49:22.350Z,12.70
2022-10-31T06:51:54.973Z,13.40
2022-10-31T06:54:23.470Z,14.70
2022-10-31T06:56:51.438Z,14.10
2022-10-31T06:59:19.414Z,14.40
2022-10-31T07:02:10.219Z,15.90
2022-10-31T07:04:38.570Z,14.10
2022-10-31T07:07:06.725Z,15.30
2022-10-31T07:09:35.743Z,14.80
2022-10-31T07:12:05.270Z,14.90
2022-10-31T07:14:36.099Z,15.60
2022-10-31T07:17:04.057Z,15.20
2022-10-31T07:19:38.582Z,13.80
2022-10-31T07:22:06.556Z,13.00
2022-10-31T07:24:35.034Z,13.30
2022-10-31T07:27:21.637Z,12.10
2022-10-31T07:29:49.805Z,13.40
2022-10-31T07:32:17.875Z,12.80
2022-10-31T07:34:52.775Z,13.60
2022-10-31T07:37:28.873Z,13.30
2022-10-31T07:39:57.485Z,10.50
2022-10-31T07:42:25.883Z,12.90
2022-10-31T07:44:56.781Z,13.00
2022-10-31T07:47:49.931Z,11.30
2022-10-31T07:50:47.450Z,11.80
2022-10-31T07:53:41.138Z,13.20
2022-10-31T07:56:24.227Z,16.00
2022-10-31T07:58:53.129Z,13.30
2022-10-31T08:01:21.377Z,14.50
2022-10-31T08:03:55.949Z,14.40
2022-10-31T08:06:43.111Z,13.00
2022-10-31T08:09:21.109Z,12.80
2022-10-31T08:11:51.225Z,13.80
2022-10-31T08:14:19.572Z,12.00
2022-10-31T08:16:47.725Z,15.40
2022-10-31T08:19:15.690Z,14.70
2022-10-31T08:21:45.359Z,12.40
2022-10-31T08:24:13.437Z,15.90
2022-10-31T08:26:42.021Z,14.40
2022-10-31T08:31:42.840Z,14.00
2022-10-31T08:34:46.583Z,14.00
2022-10-31T08:37:34.828Z,14.30
2022-10-31T08:40:05.660Z,14.10
2022-10-31T08:42:35.579Z,14.30
2022-10-31T08:45:04.260Z,13.90
2022-10-31T08:47:33.849Z,13.80
2022-10-31T08:50:02.149Z,12.80
2022-10-31T08:52:51.521Z,14.30
2022-10-31T08:55:18.778Z,13.20
2022-10-31T08:58:06.399Z,14.20
2022-10-31T09:00:43.674Z,13.30
2022-10-31T09:03:18.790Z,15.20
2022-10-31T09:05:47.467Z,15.00
2022-10-31T09:08:16.929Z,15.40
2022-10-31T09:10:47.031Z,16.00
2022-10-31T09:13:22.862Z,16.30
2022-10-31T09:16:24.594Z,15.00
2022-10-31T09:18:52.617Z,15.10
2022-10-31T09:21:20.817Z,15.40
2022-10-31T09:23:50.878Z,16.00
2022-10-31T09:26:18.886Z,16.50
2022-10-31T09:29:16.445Z,16.20
2022-10-31T09:31:45.167Z,14.10
2022-10-31T09:34:30.531Z,14.60
2022-10-31T09:37:06.988Z,14.70
2022-10-31T09:39:36.801Z,15.10
2022-10-31T09:42:21.301Z,13.90
2022-10-31T09:44:54.141Z,15.20
2022-10-31T09:47:38.712Z,16.80
2022-10-31T09:50:35.846Z,17.20
2022-10-31T09:53:24.134Z,17.50
2022-10-31T09:55:53.275Z,16.90
2022-10-31T10:00:55.231Z,12.80
2022-10-31T10:03:40.034Z,13.20
2022-10-31T10:06:23.878Z,15.00
2022-10-31T10:09:11.032Z,16.30
2022-10-31T10:12:16.091Z,19.20
2022-10-31T10:15:24.860Z,18.30
2022-10-31T10:17:52.898Z,19.00
2022-10-31T10:20:35.928Z,15.50
2022-10-31T10:23:29.327Z,14.80
2022-10-31T10:26:11.466Z,12.50
2022-10-31T10:28:43.166Z,13.40
2022-10-31T10:31:28.807Z,11.60
2022-10-31T10:34:18.338Z,12.20
2022-10-31T10:36:53.584Z,11.70
2022-10-31T10:39:27.968Z,12.20
2022-10-31T10:42:17.377Z,15.00
2022-10-31T10:45:06.742Z,13.50
2022-10-31T10:47:48.214Z,14.20
2022-10-31T10:50:23.272Z,15.80
2022-10-31T10:53:00.959Z,18.30
2022-10-31T10:55:47.567Z,15.80
2022-10-31T10:58:15.585Z,18.00
2022-10-31T11:00:50.780Z,15.60
2022-10-31T11:03:19.272Z,15.00
2022-10-31T11:05:59.845Z,16.40
2022-10-31T11:08:32.308Z,15.70
2022-10-31T11:11:02.213Z,16.90
2022-10-31T11:13:31.675Z,18.20
2022-10-31T11:16:09.932Z,17.10
2022-10-31T11:18:45.081Z,16.40
2022-10-31T11:21:26.971Z,17.90
2022-10-31T11:24:05.545Z,16.60
2022-10-31T11:26:36.319Z,16.50
2022-10-31T11:29:06.597Z,16.80
2022-10-31T11:31:36.311Z,16.70
2022-10-31T11:34:16.517Z,14.70
2022-10-31T11:36:45.666Z,15.20
2022-10-31T11:41:48.306Z,15.50
2022-10-31T11:44:20.394Z,15.90
2022-10-31T11:46:50.520Z,17.30
2022-10-31T11:49:24.714Z,18.20
2022-10-31T11:51:56.069Z,17.50
2022-10-31T11:54:47.687Z,16.70
2022-10-31T11:57:28.664Z,16.10
2022-10-31T12:00:02.226Z,17.10
2022-10-31T12:02:40.241Z,17.30
2022-10-31T12:05:19.198Z,16.20
2022-10-31T12:07:47.978Z,15.70
2022-10-31T12:10:17.277Z,16.40
2022-10-31T12:12:45.454Z,16.30
2022-10-31T12:15:35.031Z,17.80
2022-10-31T12:18:28.186Z,16.90
2022-10-31T12:21:16.326Z,17.40
2022-10-31T12:24:08.878Z,15.90
2022-10-31T12:26:46.057Z,15.90
2022-10-31T12:29:43.553Z,15.40
2022-10-31T12:32:36.389Z,15.70
2022-10-31T12:35:16.324Z,17.10
2022-10-31T12:38:05.597Z,14.90
2022-10-31T12:40:48.987Z,15.80
2022-10-31T12:44:04.404Z,15.80
2022-10-31T12:47:06.956Z,16.00
2022-10-31T12:49:52.780Z,18.40
2022-10-31T12:52:58.660Z,15.40
2022-10-31T12:55:49.577Z,14.60
2022-10-31T12:58:30.168Z,16.60
2022-10-31T13:01:42.559Z,17.20
2022-10-31T13:04:17.243Z,16.80
2022-10-31T13:06:52.387Z,17.60
2022-10-31T13:09:40.348Z,18.60
2022-10-31T13:12:19.893Z,17.10
2022-10-31T13:14:55.814Z,16.30
2022-10-31T13:17:27.488Z,16.10
2022-10-31T13:20:06.727Z,14.40
2022-10-31T13:22:38.157Z,14.90
2022-10-31T13:25:18.078Z,13.50
2022-10-31T13:27:58.271Z,16.20
2022-10-31T13:30:38.111Z,15.40
2022-10-31T13:33:18.561Z,16.80
2022-10-31T13:35:54.956Z,16.40
2022-10-31T13:38:42.070Z,14.50
2022-10-31T13:41:22.528Z,16.10
2022-10-31T13:43:59.510Z,15.50
2022-10-31T13:46:33.555Z,15.90
2022-10-31T13:49:02.001Z,15.60
2022-10-31T13:51:33.495Z,16.80
2022-10-31T13:54:01.587Z,17.90
2022-10-31T13:56:34.753Z,18.30
2022-10-31T13:59:12.042Z,16.60
2022-10-31T14:01:52.356Z,17.60
2022-10-31T14:04:26.894Z,13.90
2022-10-31T14:07:15.552Z,17.90
2022-10-31T14:10:07.365Z,16.80
2022-10-31T14:12:46.400Z,16.00
2022-10-31T14:15:21.092Z,17.30
2022-10-31T14:18:21.144Z,16.40
2022-10-31T14:20:49.893Z,16.40
2022-10-31T14:23:43.807Z,16.50
2022-10-31T14:26:18.541Z,17.60
2022-10-31T14:28:48.162Z,19.40
2022-10-31T14:31:47.558Z,17.00
2022-10-31T14:34:15.930Z,17.50
2022-10-31T14:37:09.704Z,18.30
2022-10-31T14:39:40.652Z,17.20
2022-10-31T14:42:27.024Z,17.50
2022-10-31T14:45:17.048Z,17.20
2022-10-31T14:48:07.007Z,17.40
2022-10-31T14:50:36.188Z,16.20
2022-10-31T14:53:08.290Z,18.60
2022-10-31T14:55:48.447Z,21.20
2022-10-31T14:58:22.550Z,20.90
2022-10-31T15:00:55.810Z,19.70
2022-10-31T15:03:26.791Z,21.20
2022-10-31T15:05:59.481Z,19.50
2022-10-31T15:08:39.813Z,18.80
2022-10-31T15:11:17.837Z,19.00
2022-10-31T15:13:53.173Z,19.20
2022-10-31T15:16:28.958Z,18.90
2022-10-31T15:19:08.680Z,19.70
2022-10-31T15:21:43.296Z,18.80
2022-10-31T15:24:16.898Z,16.50
2022-10-31T15:26:56.941Z,19.10
2022-10-31T15:29:28.912Z,16.30
2022-10-31T15:32:28.743Z,17.30
2022-10-31T15:34:58.307Z,17.10
2022-10-31T15:37:27.846Z,18.80
2022-10-31T15:39:56.297Z,15.40
2022-10-31T15:42:34.628Z,16.90
2022-10-31T15:45:17.167Z,16.00
2022-10-31T15:47:58.872Z,16.70
2022-10-31T15:50:41.514Z,16.00
2022-10-31T15:53:22.538Z,15.20
2022-10-31T15:55:55.804Z,15.80
2022-10-31T15:58:25.589Z,16.20
2022-10-31T16:01:20.152Z,16.30
2022-10-31T16:04:11.663Z,16.80
2022-10-31T16:06:40.131Z,15.60
2022-10-31T16:09:24.438Z,16.70
2022-10-31T16:11:52.443Z,16.50
2022-10-31T16:14:26.008Z,16.90
2022-10-31T16:17:00.077Z,15.00
2022-10-31T16:19:36.831Z,16.40
2022-10-31T16:22:15.057Z,15.40
2022-10-31T16:24:50.636Z,16.80
2022-10-31T16:27:29.621Z,14.20
2022-10-31T16:32:32.395Z,13.80
2022-10-31T16:35:00.471Z,15.50
2022-10-31T16:37:28.434Z,15.90
2022-10-31T16:39:57.153Z,16.90
2022-10-31T16:42:25.774Z,16.80
2022-10-31T16:44:53.879Z,18.40
2022-10-31T16:47:23.432Z,17.30
2022-10-31T16:49:54.224Z,18.80
2022-10-31T16:52:22.298Z,18.90
2022-10-31T16:54:50.266Z,17.80
2022-10-31T16:57:28.129Z,17.50
2022-10-31T16:59:56.172Z,18.30
2022-10-31T17:02:24.978Z,18.60
2022-10-31T17:04:55.797Z,17.80
2022-10-31T17:07:25.165Z,18.70
2022-10-31T17:09:53.434Z,18.20
2022-10-31T17:12:27.297Z,17.50
2022-10-31T17:14:55.415Z,19.00
2022-10-31T17:17:24.213Z,17.50
2022-10-31T17:19:52.287Z,16.10
2022-10-31T17:22:20.247Z,15.10
2022-10-31T17:24:48.428Z,14.80
2022-10-31T17:27:16.593Z,17.30
2022-10-31T17:29:44.570Z,16.20
2022-10-31T17:32:12.539Z,17.90
2022-10-31T17:34:40.503Z,17.70
2022-10-31T17:37:11.505Z,17.30
2022-10-31T17:39:39.626Z,17.90
2022-10-31T17:42:07.802Z,16.70
2022-10-31T17:44:35.970Z,16.40
2022-10-31T17:47:04.142Z,17.90
2022-10-31T17:49:32.211Z,19.30
2022-10-31T17:52:01.513Z,18.80
2022-10-31T17:54:29.482Z,19.40
2022-10-31T17:56:57.560Z,20.00
2022-10-31T17:59:26.711Z,18.60
2022-10-31T18:01:54.693Z,17.80
2022-10-31T18:04:23.020Z,18.80
2022-10-31T18:06:51.282Z,19.60
2022-10-31T18:09:19.354Z,17.70
2022-10-31T18:11:47.629Z,18.90
2022-10-31T18:14:15.533Z,17.90
2022-10-31T18:16:43.775Z,19.50
2022-10-31T18:19:16.118Z,18.60
2022-10-31T18:21:47.236Z,19.00
2022-10-31T18:24:15.161Z,20.20
2022-10-31T18:26:43.226Z,21.10
2022-10-31T18:29:12.024Z,18.00
2022-10-31T18:31:40.295Z,15.80
2022-10-31T18:34:08.574Z,15.70
2022-10-31T18:36:36.650Z,13.80
2022-10-31T18:39:04.719Z,15.30
2022-10-31T18:41:33.197Z,17.40
2022-10-31T18:44:01.583Z,17.90
2022-10-31T18:46:29.705Z,17.70
2022-10-31T18:48:58.315Z,17.40
2022-10-31T18:51:26.832Z,18.20
2022-10-31T18:54:00.727Z,19.40
2022-10-31T18:56:33.468Z,18.10
2022-10-31T18:59:02.465Z,18.00
2022-10-31T19:01:34.130Z,17.80
2022-10-31T19:04:02.232Z,18.80
2022-10-31T19:06:33.910Z,17.60
2022-10-31T19:09:06.231Z,18.40
2022-10-31T19:11:35.983Z,17.10
2022-10-31T19:17:31.047Z,16.80
2022-10-31T19:19:40.690Z,18.40
2022-10-31T19:22:08.693Z,20.90
2022-10-31T19:24:36.563Z,21.10
2022-10-31T19:27:04.724Z,21.60
2022-10-31T19:29:32.709Z,20.60
2022-10-31T19:32:00.773Z,22.40
2022-10-31T19:34:28.940Z,19.80
2022-10-31T19:36:56.880Z,20.20
2022-10-31T19:39:25.089Z,20.00
2022-10-31T19:41:52.976Z,21.00
2022-10-31T19:44:21.092Z,21.10
2022-10-31T19:46:53.431Z,18.30
2022-10-31T19:49:22.101Z,19.60
2022-10-31T19:51:50.982Z,20.00
2022-10-31T19:54:18.922Z,21.00
2022-10-31T19:56:47.124Z,19.80
2022-10-31T19:59:17.050Z,18.30
2022-10-31T20:01:45.161Z,16.00
2022-10-31T20:04:13.410Z,16.50
2022-10-31T20:06:41.972Z,19.70
2022-10-31T20:09:13.863Z,20.30
2022-10-31T20:11:44.079Z,16.70
2022-10-31T20:14:18.419Z,18.80
2022-10-31T20:16:46.650Z,18.40
2022-10-31T20:19:15.029Z,17.30
2022-10-31T20:21:43.416Z,20.50
2022-10-31T20:24:12.231Z,18.70
2022-10-31T20:26:41.499Z,18.00
2022-10-31T20:31:41.764Z,16.20
2022-10-31T20:34:09.811Z,19.40
2022-10-31T20:36:37.881Z,18.60
2022-10-31T20:39:05.951Z,17.20
2022-10-31T20:41:36.846Z,19.10
2022-10-31T20:44:06.415Z,16.70
2022-10-31T20:46:34.901Z,16.40
2022-10-31T20:49:02.944Z,18.00
2022-10-31T20:51:31.995Z,16.90
2022-10-31T20:56:29.208Z,15.10
2022-10-31T20:58:57.700Z,14.10
2022-10-31T21:01:29.182Z,14.50
2022-10-31T21:03:58.769Z,15.40
2022-10-31T21:06:27.609Z,14.90
2022-10-31T21:08:56.475Z,15.40
2022-10-31T21:11:26.602Z,14.60
2022-10-31T21:13:55.346Z,15.60
2022-10-31T21:16:29.306Z,15.20
2022-10-31T21:18:59.432Z,14.50
2022-10-31T21:21:32.464Z,14.20
2022-10-31T21:24:07.567Z,11.90
2022-10-31T21:26:38.859Z,11.50
2022-10-31T21:29:08.544Z,13.00
2022-10-31T21:31:38.166Z,12.20
2022-10-31T21:34:07.255Z,11.70
2022-10-31T21:39:05.629Z,13.40
2022-10-31T21:41:34.519Z,13.60
2022-10-31T21:44:03.010Z,13.80
2022-10-31T21:46:32.932Z,16.40
2022-10-31T21:49:03.518Z,15.20
2022-10-31T21:51:35.374Z,14.00
2022-10-31T21:54:23.152Z,15.40
2022-10-31T21:56:52.040Z,15.00
2022-10-31T22:01:49.307Z,11.50
2022-10-31T22:04:18.983Z,12.10
2022-10-31T22:06:47.205Z,10.20
2022-10-31T22:09:17.421Z,14.00
2022-10-31T22:11:45.993Z,14.40
2022-10-31T22:14:15.099Z,13.90
2022-10-31T22:16:43.858Z,13.20
2022-10-31T22:19:13.914Z,13.30
2022-10-31T22:21:47.460Z,13.40
2022-10-31T22:24:17.518Z,12.80
2022-10-31T22:26:45.807Z,13.90
2022-10-31T22:29:17.358Z,13.60
2022-10-31T22:31:50.630Z,13.80
2022-10-31T22:34:21.498Z,13.70
2022-10-31T22:36:49.560Z,13.50
2022-10-31T22:39:17.623Z,14.80
2022-10-31T22:41:45.907Z,14.20
2022-10-31T22:44:13.973Z,14.20
2022-10-31T22:46:41.891Z,14.70
2022-10-31T22:49:15.378Z,13.90
2022-10-31T22:51:44.646Z,13.60
2022-10-31T22:54:18.038Z,13.80
2022-10-31T22:56:46.585Z,12.70
2022-10-31T22:59:16.261Z,14.00
2022-10-31T23:01:45.997Z,13.70
2022-10-31T23:04:16.908Z,13.50
2022-10-31T23:06:45.787Z,13.70
2022-10-31T23:09:16.710Z,14.60
2022-10-31T23:11:45.198Z,13.30
2022-10-31T23:14:20.859Z,15.40
2022-10-31T23:16:54.050Z,14.10
2022-10-31T23:19:27.788Z,12.10
2022-10-31T23:22:04.965Z,14.50
2022-10-31T23:24:44.468Z,15.70
2022-10-31T23:27:16.744Z,11.40
2022-10-31T23:29:47.774Z,13.80
2022-10-31T23:32:48.111Z,12.60
2022-10-31T23:35:16.591Z,12.50
2022-10-31T23:37:44.557Z,13.70
2022-10-31T23:40:12.700Z,13.70
2022-10-31T23:42:40.610Z,14.20
2022-10-31T23:45:09.093Z,13.40
2022-10-31T23:47:42.349Z,14.80
2022-10-31T23:50:11.580Z,14.30
2022-10-31T23:52:39.543Z,14.50
2022-10-31T23:55:08.141Z,14.10
2022-10-31T23:57:36.204Z,12.80
